Time;durP1;ratioP1;P1;durP2;ratioP2;P2;SDS_P1;SDS_P2;PMS_P1;PMS_P2;Temp;Humidity;BMP_temperature;BMP_pressure;BME280_temperature;BME280_humidity;BME280_pressure;Samples;Min_cycle;Max_cycle;Signal;HPM_P1;HPM_P2
2023/03/10 00:00:18;;;;;;;36.72;23.95;;;11.50;99.90;;;;;;4973049;28;20086;-72
2023/03/10 00:02:48;;;;;;;38.63;24.75;;;11.50;99.90;;;;;;4965734;28;20041;-72
2023/03/10 00:05:15;;;;;;;29.27;18.63;;;11.50;99.90;;;;;;4980109;28;20026;-72
2023/03/10 00:07:41;;;;;;;30.73;20.25;;;11.50;99.90;;;;;;4970288;28;20421;-72
2023/03/10 00:10:09;;;;;;;31.77;21.27;;;11.40;99.90;;;;;;4983496;28;20038;-72
2023/03/10 00:12:34;;;;;;;33.50;20.60;;;11.40;99.90;;;;;;4968630;28;20039;-72
2023/03/10 00:15:00;;;;;;;30.10;19.92;;;11.40;99.90;;;;;;4984104;28;20026;-72
2023/03/10 00:17:26;;;;;;;33.33;20.13;;;11.40;99.90;;;;;;4971959;28;20437;-72
2023/03/10 00:19:52;;;;;;;79.45;43.08;;;11.40;99.90;;;;;;4976082;28;20042;-72
2023/03/10 00:22:18;;;;;;;66.30;39.13;;;11.30;99.90;;;;;;4976061;28;20038;-72
2023/03/10 00:24:43;;;;;;;54.45;30.88;;;11.40;99.90;;;;;;4981646;28;20034;-72
2023/03/10 00:27:09;;;;;;;37.97;24.55;;;11.20;99.90;;;;;;4969215;28;20113;-72
2023/03/10 00:29:35;;;;;;;58.42;35.58;;;11.10;99.90;;;;;;4972219;28;20034;-72
2023/03/10 00:32:00;;;;;;;42.88;25.63;;;11.20;99.90;;;;;;4970413;28;20058;-72
2023/03/10 00:34:26;;;;;;;35.05;21.35;;;11.30;99.90;;;;;;4980169;28;20089;-72
2023/03/10 00:36:52;;;;;;;41.80;24.85;;;11.20;99.90;;;;;;4980504;28;20026;-72
2023/03/10 00:39:17;;;;;;;28.05;19.73;;;11.10;99.90;;;;;;4969906;28;20031;-72
2023/03/10 00:41:43;;;;;;;35.58;22.52;;;11.20;99.90;;;;;;4974793;28;20034;-72
2023/03/10 00:44:09;;;;;;;104.72;53.67;;;11.10;99.90;;;;;;4981578;28;20062;-72
2023/03/10 00:46:37;;;;;;;45.58;24.50;;;11.00;99.90;;;;;;4968991;28;20027;-72
2023/03/10 00:49:04;;;;;;;160.55;83.82;;;10.90;99.90;;;;;;4976882;28;20042;-72
2023/03/10 00:51:30;;;;;;;111.63;52.40;;;10.90;99.90;;;;;;4974830;28;20073;-72
2023/03/10 00:53:55;;;;;;;64.95;35.90;;;10.80;99.90;;;;;;4970327;28;20039;-73
2023/03/10 00:56:23;;;;;;;51.03;29.27;;;10.80;99.90;;;;;;4976785;28;20027;-72
2023/03/10 00:58:51;;;;;;;78.10;40.85;;;10.80;99.90;;;;;;4970564;28;20555;-72
2023/03/10 01:01:28;;;;;;;35.30;19.73;;;10.80;99.90;;;;;;4982606;28;20420;-72
2023/03/10 01:03:57;;;;;;;94.40;45.90;;;10.70;99.90;;;;;;4970311;28;20117;-72
2023/03/10 01:06:23;;;;;;;30.40;19.75;;;10.70;99.90;;;;;;4973031;28;20081;-72
2023/03/10 01:08:49;;;;;;;42.10;26.10;;;10.70;99.90;;;;;;4972505;28;20026;-72
2023/03/10 01:11:16;;;;;;;51.90;29.15;;;10.70;99.90;;;;;;4980242;28;20096;-72
2023/03/10 01:13:43;;;;;;;92.75;46.35;;;10.70;99.90;;;;;;4972559;28;20370;-72
2023/03/10 01:16:08;;;;;;;118.18;61.35;;;10.70;99.90;;;;;;4982317;28;20104;-72
2023/03/10 01:18:34;;;;;;;35.25;19.23;;;10.50;99.90;;;;;;4979422;28;20063;-72
2023/03/10 01:21:00;;;;;;;27.40;18.30;;;10.50;99.90;;;;;;4975758;28;20041;-72
2023/03/10 01:23:26;;;;;;;31.00;18.63;;;10.50;99.90;;;;;;4977366;28;20027;-72
2023/03/10 01:25:52;;;;;;;29.85;18.90;;;10.40;99.90;;;;;;4973521;28;20158;-72
2023/03/10 01:28:19;;;;;;;31.77;18.77;;;10.50;99.90;;;;;;4977151;28;20117;-72
2023/03/10 01:30:45;;;;;;;42.13;24.10;;;10.70;99.90;;;;;;4986258;28;20548;-72
2023/03/10 01:33:11;;;;;;;41.03;26.60;;;10.70;99.90;;;;;;4992266;28;20034;-72
2023/03/10 01:35:38;;;;;;;32.38;21.50;;;10.60;99.90;;;;;;4974330;28;20113;-72
2023/03/10 01:38:05;;;;;;;58.80;37.33;;;10.60;99.90;;;;;;4971742;28;20035;-72
2023/03/10 01:40:31;;;;;;;33.75;19.13;;;10.60;99.90;;;;;;4974515;28;20030;-72
2023/03/10 01:43:18;;;;;;;27.73;16.30;;;10.50;99.90;;;;;;4972031;28;20043;-72
2023/03/10 01:45:44;;;;;;;35.15;22.33;;;10.50;99.90;;;;;;4983735;28;20030;-72
2023/03/10 01:48:11;;;;;;;91.20;54.83;;;10.50;99.90;;;;;;4973659;28;20417;-72
2023/03/10 01:50:38;;;;;;;35.08;19.50;;;10.50;99.90;;;;;;4977911;28;20038;-72
2023/03/10 01:53:04;;;;;;;31.33;18.35;;;10.60;99.90;;;;;;4984613;28;20038;-72
2023/03/10 01:55:34;;;;;;;28.90;17.58;;;10.60;99.90;;;;;;4981378;28;20030;-72
2023/03/10 01:58:03;;;;;;;27.80;16.63;;;10.50;99.90;;;;;;4978909;28;20034;-72
2023/03/10 02:00:29;;;;;;;24.58;16.38;;;10.50;99.90;;;;;;4982129;28;20042;-72
2023/03/10 02:03:18;;;;;;;29.70;17.58;;;10.50;99.90;;;;;;4979409;28;20080;-72
2023/03/10 02:05:53;;;;;;;23.60;15.90;;;10.40;99.90;;;;;;4978017;28;20030;-72
2023/03/10 02:08:20;;;;;;;34.85;20.20;;;10.40;99.90;;;;;;4975925;28;20065;-72
2023/03/10 02:10:47;;;;;;;32.63;17.58;;;10.40;99.90;;;;;;4977876;28;20037;-72
2023/03/10 02:13:12;;;;;;;25.60;16.70;;;10.40;99.90;;;;;;4978432;28;20031;-72
2023/03/10 02:15:39;;;;;;;32.85;16.73;;;10.50;99.90;;;;;;4978529;28;20499;-72
2023/03/10 02:18:09;;;;;;;29.17;18.67;;;10.50;99.90;;;;;;4973385;28;20026;-73
2023/03/10 02:21:17;;;;;;;45.72;29.58;;;10.50;99.90;;;;;;4983677;28;20393;-73
2023/03/10 02:24:19;;;;;;;29.80;18.02;;;10.40;99.90;;;;;;4980350;28;20043;-73
2023/03/10 02:26:57;;;;;;;24.70;15.52;;;10.20;99.90;;;;;;4979288;28;20030;-71
2023/03/10 02:29:39;;;;;;;32.22;16.55;;;10.00;99.90;;;;;;4982355;28;20477;-71
2023/03/10 02:32:05;;;;;;;25.60;14.77;;;10.00;99.90;;;;;;4976678;28;20122;-71
2023/03/10 02:34:31;;;;;;;24.73;15.30;;;9.90;99.90;;;;;;4978666;28;20115;-71
2023/03/10 02:36:56;;;;;;;31.52;18.80;;;9.90;99.90;;;;;;4976991;28;20110;-71
2023/03/10 02:39:22;;;;;;;25.13;15.10;;;10.10;99.90;;;;;;4982526;28;20035;-71
2023/03/10 02:41:48;;;;;;;25.60;15.90;;;10.00;99.90;;;;;;4979060;28;20486;-71
2023/03/10 02:44:19;;;;;;;28.75;16.67;;;10.20;99.90;;;;;;4977076;28;20031;-71
2023/03/10 02:46:45;;;;;;;25.48;16.08;;;10.30;99.90;;;;;;4975709;28;20030;-71
2023/03/10 02:49:11;;;;;;;27.25;15.13;;;10.40;99.90;;;;;;4983376;28;20118;-71
2023/03/10 02:51:43;;;;;;;19.80;12.60;;;10.40;99.90;;;;;;4974468;28;20026;-71
2023/03/10 02:54:09;;;;;;;18.52;11.90;;;10.50;99.90;;;;;;4973464;28;20031;-71
2023/03/10 02:56:36;;;;;;;22.83;12.40;;;10.40;99.90;;;;;;4970465;28;20038;-71
2023/03/10 02:59:05;;;;;;;25.60;14.93;;;10.40;99.90;;;;;;4977557;28;20038;-71
2023/03/10 03:01:31;;;;;;;22.77;15.57;;;10.40;99.90;;;;;;4971259;28;20126;-73
2023/03/10 03:03:58;;;;;;;23.80;13.85;;;10.40;99.90;;;;;;4981308;28;20477;-73
2023/03/10 03:06:24;;;;;;;21.25;13.70;;;10.20;99.90;;;;;;4982474;28;20026;-71
2023/03/10 03:08:49;;;;;;;22.00;13.15;;;10.10;99.90;;;;;;4977358;28;20034;-71
2023/03/10 03:11:15;;;;;;;22.30;13.90;;;10.10;99.90;;;;;;4974738;28;20041;-71
2023/03/10 03:13:42;;;;;;;21.10;13.43;;;10.20;99.90;;;;;;4973479;28;20031;-71
2023/03/10 03:16:08;;;;;;;21.92;12.85;;;10.30;99.90;;;;;;4978333;28;20038;-71
2023/03/10 03:18:35;;;;;;;23.52;13.88;;;10.30;99.90;;;;;;4970834;28;20031;-71
2023/03/10 03:21:10;;;;;;;24.33;13.82;;;10.20;99.90;;;;;;4981395;28;20043;-71
2023/03/10 03:23:37;;;;;;;21.70;14.85;;;10.30;99.90;;;;;;4972516;28;20031;-72
2023/03/10 03:26:03;;;;;;;26.85;15.48;;;10.30;99.90;;;;;;4979705;28;20042;-71
2023/03/10 03:28:29;;;;;;;26.98;15.23;;;10.20;99.90;;;;;;4979939;28;20034;-71
2023/03/10 03:30:55;;;;;;;20.33;13.73;;;10.10;99.90;;;;;;4974967;28;20424;-71
2023/03/10 03:33:21;;;;;;;19.10;12.27;;;10.00;99.90;;;;;;4971789;28;20496;-71
2023/03/10 03:35:46;;;;;;;24.25;15.20;;;9.90;99.90;;;;;;4969110;28;20594;-71
2023/03/10 03:38:12;;;;;;;20.15;12.93;;;9.90;99.90;;;;;;4977202;28;20481;-71
2023/03/10 03:40:38;;;;;;;25.70;14.93;;;10.00;99.90;;;;;;4976020;28;20027;-71
2023/03/10 03:43:05;;;;;;;28.85;15.63;;;10.10;99.90;;;;;;4974095;28;20628;-71
2023/03/10 03:45:31;;;;;;;26.20;14.70;;;10.30;99.90;;;;;;4976704;28;20036;-72
2023/03/10 03:47:58;;;;;;;23.55;14.75;;;10.20;99.90;;;;;;4978404;28;20030;-72
2023/03/10 03:50:24;;;;;;;25.35;15.65;;;10.40;99.90;;;;;;4974515;28;20034;-71
2023/03/10 03:52:50;;;;;;;26.40;16.38;;;10.40;99.90;;;;;;4987459;28;20125;-71
2023/03/10 03:55:17;;;;;;;27.70;16.02;;;10.40;99.90;;;;;;4975405;28;20125;-71
2023/03/10 03:57:44;;;;;;;28.27;14.50;;;10.50;99.90;;;;;;4979475;28;20451;-71
2023/03/10 04:00:17;;;;;;;24.75;13.02;;;10.30;99.90;;;;;;4984777;28;20062;-71
2023/03/10 04:02:43;;;;;;;24.33;13.93;;;10.00;99.90;;;;;;4980298;28;20034;-71
2023/03/10 04:05:08;;;;;;;35.35;13.25;;;9.80;99.90;;;;;;4975134;28;20042;-71
2023/03/10 04:07:36;;;;;;;23.38;13.93;;;9.90;99.90;;;;;;4980531;28;20041;-71
2023/03/10 04:10:02;;;;;;;23.50;13.40;;;9.80;99.90;;;;;;4966106;28;20026;-71
2023/03/10 04:12:28;;;;;;;24.02;12.70;;;9.80;99.90;;;;;;4968118;28;20042;-71
2023/03/10 04:14:54;;;;;;;24.20;14.50;;;9.70;99.90;;;;;;4975991;28;20034;-71
2023/03/10 04:17:19;;;;;;;21.10;12.80;;;9.60;99.90;;;;;;4980728;28;20118;-71
2023/03/10 04:19:45;;;;;;;22.33;12.90;;;9.60;99.90;;;;;;4969729;28;20027;-72
2023/03/10 04:22:11;;;;;;;23.40;13.25;;;9.60;99.90;;;;;;4966731;28;20047;-72
2023/03/10 04:24:38;;;;;;;20.08;12.85;;;9.70;99.90;;;;;;4980070;28;20027;-72
2023/03/10 04:27:04;;;;;;;19.73;12.68;;;9.70;99.90;;;;;;4972704;28;20061;-72
2023/03/10 04:29:30;;;;;;;19.65;13.15;;;9.80;99.90;;;;;;4981097;28;20034;-72
2023/03/10 04:31:56;;;;;;;20.55;12.25;;;9.70;99.90;;;;;;4977401;28;20031;-72
2023/03/10 04:34:21;;;;;;;23.67;12.35;;;9.60;99.90;;;;;;4968709;28;20058;-72
2023/03/10 04:36:47;;;;;;;19.77;12.68;;;9.50;99.90;;;;;;4972375;28;20034;-72
2023/03/10 04:39:14;;;;;;;23.92;12.55;;;9.40;99.90;;;;;;4967871;28;20034;-72
2023/03/10 04:41:39;;;;;;;18.45;11.23;;;9.30;99.90;;;;;;4985342;28;20046;-72
2023/03/10 04:44:06;;;;;;;20.83;11.90;;;9.40;99.90;;;;;;4981053;28;20104;-72
2023/03/10 04:46:31;;;;;;;18.83;11.27;;;9.40;99.90;;;;;;4973097;28;20109;-72
2023/03/10 04:48:57;;;;;;;19.02;11.80;;;9.50;99.90;;;;;;4972714;28;20121;-72
2023/03/10 04:51:23;;;;;;;19.00;11.77;;;9.70;99.90;;;;;;4979996;28;20413;-72
2023/03/10 04:53:49;;;;;;;19.95;12.93;;;9.70;99.90;;;;;;4965770;28;20034;-72
2023/03/10 04:56:15;;;;;;;24.92;12.23;;;9.70;99.90;;;;;;4966545;28;20037;-72
2023/03/10 04:58:41;;;;;;;22.67;11.38;;;9.80;99.90;;;;;;4980456;28;20113;-72
2023/03/10 05:01:08;;;;;;;21.92;13.63;;;9.70;99.90;;;;;;4976035;28;20061;-72
2023/03/10 05:03:34;;;;;;;23.52;13.50;;;9.60;99.90;;;;;;4975554;28;20047;-72
2023/03/10 05:05:59;;;;;;;22.27;14.02;;;9.60;99.90;;;;;;4974378;28;20034;-72
2023/03/10 05:08:25;;;;;;;24.73;14.18;;;9.70;99.90;;;;;;4982694;28;20030;-72
2023/03/10 05:10:51;;;;;;;29.50;15.88;;;9.80;99.90;;;;;;4975573;28;20039;-72
2023/03/10 05:13:16;;;;;;;21.25;13.70;;;9.80;99.90;;;;;;4974913;28;20038;-72
2023/03/10 05:15:42;;;;;;;23.42;13.60;;;9.80;99.90;;;;;;4969986;28;20631;-72
2023/03/10 05:18:10;;;;;;;24.45;13.68;;;9.80;99.90;;;;;;4973309;28;20073;-73
2023/03/10 05:20:37;;;;;;;23.45;14.82;;;9.80;99.90;;;;;;4974902;28;20031;-72
2023/03/10 05:23:03;;;;;;;24.75;13.23;;;9.60;99.90;;;;;;4977085;28;20033;-72
2023/03/10 05:25:28;;;;;;;20.52;12.70;;;9.70;99.90;;;;;;4975876;28;20030;-73
2023/03/10 05:27:54;;;;;;;21.65;12.27;;;9.80;99.90;;;;;;4970344;28;20041;-72
2023/03/10 05:30:20;;;;;;;19.50;13.20;;;9.70;99.90;;;;;;4977426;28;20054;-72
2023/03/10 05:32:46;;;;;;;22.40;12.02;;;9.50;99.90;;;;;;4978203;28;20030;-72
2023/03/10 05:35:12;;;;;;;24.63;12.45;;;9.40;99.90;;;;;;4986398;28;20034;-73
2023/03/10 05:37:40;;;;;;;21.77;12.80;;;9.30;99.90;;;;;;4983434;28;20493;-72
2023/03/10 05:40:08;;;;;;;22.73;12.75;;;9.40;99.90;;;;;;4976931;28;20383;-73
2023/03/10 05:42:34;;;;;;;20.92;12.32;;;9.50;99.90;;;;;;4980106;28;20038;-72
2023/03/10 05:44:59;;;;;;;20.70;13.60;;;9.50;99.90;;;;;;4974749;28;20037;-72
2023/03/10 05:47:25;;;;;;;20.75;12.80;;;9.50;99.90;;;;;;4967923;28;20031;-72
2023/03/10 05:49:51;;;;;;;23.90;13.85;;;9.50;99.90;;;;;;4970230;28;20030;-72
2023/03/10 05:52:17;;;;;;;18.95;11.73;;;9.60;99.90;;;;;;4972254;28;20034;-72
2023/03/10 05:54:42;;;;;;;21.55;13.55;;;9.50;99.90;;;;;;4978902;28;20018;-72
2023/03/10 05:57:08;;;;;;;21.15;12.65;;;9.60;99.90;;;;;;4981373;28;20066;-72
2023/03/10 05:59:33;;;;;;;27.40;14.02;;;9.50;99.90;;;;;;4972140;28;20046;-73
2023/03/10 06:01:59;;;;;;;30.27;13.60;;;9.40;99.90;;;;;;4975839;28;20050;-73
2023/03/10 06:04:27;;;;;;;20.17;12.23;;;9.30;99.90;;;;;;4975498;28;20058;-73
2023/03/10 06:06:54;;;;;;;19.38;12.13;;;9.20;99.90;;;;;;4972975;28;20113;-76
2023/03/10 06:09:20;;;;;;;25.00;13.18;;;9.20;99.90;;;;;;4971288;28;20023;-73
2023/03/10 06:11:46;;;;;;;23.35;12.52;;;9.10;99.90;;;;;;4980453;28;20050;-74
2023/03/10 06:14:12;;;;;;;23.98;13.05;;;9.10;99.90;;;;;;4971051;28;20044;-73
2023/03/10 06:16:37;;;;;;;23.05;14.65;;;9.10;99.90;;;;;;4975935;28;20064;-74
2023/03/10 06:19:03;;;;;;;20.98;12.43;;;9.00;99.90;;;;;;4980654;28;20618;-73
2023/03/10 06:21:29;;;;;;;21.52;13.20;;;9.10;99.90;;;;;;4980597;28;20069;-72
2023/03/10 06:23:55;;;;;;;24.45;14.40;;;9.20;99.90;;;;;;4977345;28;20034;-74
2023/03/10 06:26:21;;;;;;;23.10;13.63;;;9.20;99.90;;;;;;4977526;28;20030;-75
2023/03/10 06:28:47;;;;;;;25.52;14.35;;;9.30;99.90;;;;;;4969450;28;20532;-75
2023/03/10 06:31:17;;;;;;;21.55;13.40;;;9.40;99.90;;;;;;4971491;28;20137;-75
2023/03/10 06:33:43;;;;;;;24.98;13.85;;;9.40;99.90;;;;;;4965098;28;20093;-75
2023/03/10 06:36:11;;;;;;;25.33;13.98;;;9.40;99.90;;;;;;4971542;28;20027;-74
2023/03/10 06:38:38;;;;;;;25.77;14.27;;;9.30;99.90;;;;;;4971089;28;20489;-76
2023/03/10 06:41:04;;;;;;;20.55;13.27;;;9.50;99.90;;;;;;4970131;28;20125;-78
2023/03/10 06:43:31;;;;;;;25.30;13.85;;;9.60;99.90;;;;;;4972295;28;20620;-76
2023/03/10 06:45:57;;;;;;;21.92;14.10;;;9.60;99.90;;;;;;4965300;28;20038;-77
2023/03/10 06:48:23;;;;;;;23.88;14.73;;;9.70;99.90;;;;;;4973302;28;20392;-76
2023/03/10 06:50:49;;;;;;;24.17;13.95;;;9.60;99.90;;;;;;4974771;28;20039;-75
2023/03/10 06:53:20;;;;;;;25.20;14.30;;;9.70;99.90;;;;;;4968119;28;20038;-76
2023/03/10 06:56:05;;;;;;;26.00;14.15;;;9.90;99.90;;;;;;4964399;28;20027;-76
2023/03/10 06:58:31;;;;;;;;;;;9.90;99.90;;;;;;4970827;28;20493;-76
2023/03/10 07:00:57;;;;;;;24.35;13.73;;;9.90;99.90;;;;;;4970528;28;20515;-76
2023/03/10 07:03:25;;;;;;;22.63;13.80;;;10.00;99.90;;;;;;4964046;28;20035;-75
2023/03/10 07:05:51;;;;;;;24.08;14.68;;;10.00;99.90;;;;;;4971441;28;20031;-76
2023/03/10 07:08:17;;;;;;;27.70;16.35;;;9.90;99.90;;;;;;4964467;28;20528;-75
2023/03/10 07:10:44;;;;;;;23.75;15.52;;;10.00;99.90;;;;;;4970040;28;20383;-76
2023/03/10 07:13:14;;;;;;;20.73;14.63;;;9.90;99.90;;;;;;4972363;28;20031;-76
2023/03/10 07:15:43;;;;;;;26.02;14.60;;;9.90;99.90;;;;;;4973377;28;20113;-76
2023/03/10 07:18:09;;;;;;;25.80;15.38;;;9.90;99.90;;;;;;4965696;28;20062;-77
2023/03/10 07:20:38;;;;;;;26.20;14.07;;;10.10;99.90;;;;;;4977076;28;20101;-77
2023/03/10 07:23:03;;;;;;;23.83;14.65;;;10.10;99.90;;;;;;4976738;28;20022;-76
2023/03/10 07:25:29;;;;;;;28.70;15.48;;;10.20;99.90;;;;;;4970548;28;20381;-76
2023/03/10 07:27:55;;;;;;;23.73;14.88;;;10.10;99.90;;;;;;4969286;28;20062;-77
2023/03/10 07:30:20;;;;;;;22.98;14.40;;;10.20;99.90;;;;;;4971536;28;20089;-76
2023/03/10 07:32:46;;;;;;;25.92;14.90;;;10.30;99.90;;;;;;4976351;28;20120;-75
2023/03/10 07:35:12;;;;;;;26.00;14.82;;;10.40;99.90;;;;;;4970710;28;20144;-75
2023/03/10 07:37:39;;;;;;;22.30;13.68;;;10.60;99.90;;;;;;4967392;28;20512;-75
2023/03/10 07:40:08;;;;;;;21.85;14.82;;;10.80;99.90;;;;;;4967941;28;20026;-75
2023/03/10 07:42:33;;;;;;;25.50;15.75;;;10.80;99.90;;;;;;4973357;28;20038;-75
2023/03/10 07:44:59;;;;;;;26.02;14.57;;;10.80;99.90;;;;;;4972113;28;20041;-75
2023/03/10 07:47:26;;;;;;;24.10;15.00;;;10.80;99.90;;;;;;4975979;28;20471;-76
2023/03/10 07:49:51;;;;;;;25.00;15.15;;;10.90;99.90;;;;;;4968122;28;20141;-75
2023/03/10 07:52:18;;;;;;;25.73;14.35;;;10.90;99.90;;;;;;4970528;28;20117;-75
2023/03/10 07:54:44;;;;;;;30.50;16.88;;;10.80;99.90;;;;;;4978459;28;20062;-74
2023/03/10 07:57:11;;;;;;;26.88;16.05;;;10.80;99.90;;;;;;4975253;28;20112;-75
2023/03/10 07:59:37;;;;;;;27.27;15.93;;;10.90;99.90;;;;;;4964989;28;20046;-75
2023/03/10 08:02:03;;;;;;;28.92;17.65;;;11.00;99.90;;;;;;4978574;28;20508;-76
2023/03/10 08:04:29;;;;;;;29.63;17.25;;;11.00;99.90;;;;;;4974076;28;20030;-75
2023/03/10 08:06:54;;;;;;;33.22;20.20;;;11.20;99.90;;;;;;4968917;28;20114;-74
2023/03/10 08:09:20;;;;;;;33.60;18.80;;;11.20;99.90;;;;;;4970275;28;20193;-75
2023/03/10 08:11:46;;;;;;;34.13;18.23;;;11.30;99.90;;;;;;4982498;28;20066;-75
2023/03/10 08:14:12;;;;;;;24.77;16.75;;;11.30;99.90;;;;;;4981725;28;20077;-75
2023/03/10 08:16:37;;;;;;;34.63;17.48;;;11.40;99.90;;;;;;4974544;28;20618;-74
2023/03/10 08:19:03;;;;;;;27.63;17.67;;;11.30;99.90;;;;;;4968422;28;20046;-75
2023/03/10 08:21:29;;;;;;;29.60;18.42;;;11.50;99.90;;;;;;4970428;28;20701;-75
2023/03/10 08:23:54;;;;;;;29.55;17.90;;;11.40;99.90;;;;;;4972129;28;20504;-75
2023/03/10 08:26:20;;;;;;;29.83;18.33;;;11.10;99.90;;;;;;4977846;28;20501;-75
2023/03/10 08:28:47;;;;;;;28.00;18.65;;;11.10;99.90;;;;;;4978521;28;20999;-75
2023/03/10 08:31:16;;;;;;;31.10;17.80;;;11.20;99.90;;;;;;4970406;28;20031;-75
2023/03/10 08:33:43;;;;;;;25.35;15.68;;;11.30;99.90;;;;;;4976418;28;20030;-75
2023/03/10 08:36:20;;;;;;;30.00;16.95;;;11.40;99.90;;;;;;4962793;28;20027;-75
2023/03/10 08:38:46;;;;;;;24.77;15.88;;;11.60;99.90;;;;;;4969877;28;20100;-75
2023/03/10 08:41:31;;;;;;;27.40;17.33;;;11.60;99.90;;;;;;4962059;28;21181;-75
2023/03/10 08:43:57;;;;;;;26.35;17.05;;;11.60;99.90;;;;;;4964455;28;20132;-75
2023/03/10 08:46:24;;;;;;;30.88;18.92;;;11.60;99.90;;;;;;4961677;28;20065;-75
2023/03/10 08:48:51;;;;;;;29.80;18.83;;;11.80;99.90;;;;;;4969166;28;20027;-75
2023/03/10 08:51:17;;;;;;;31.08;18.98;;;11.80;99.90;;;;;;4964369;28;20069;-75
2023/03/10 08:53:45;;;;;;;28.15;17.50;;;11.70;99.90;;;;;;4964419;28;20058;-75
2023/03/10 08:56:12;;;;;;;28.60;17.25;;;11.70;99.90;;;;;;4968131;28;20161;-75
2023/03/10 08:58:38;;;;;;;33.55;20.25;;;11.90;99.90;;;;;;4960097;28;20066;-75
2023/03/10 09:01:04;;;;;;;29.98;18.92;;;12.00;99.90;;;;;;4973858;28;20050;-75
2023/03/10 09:03:30;;;;;;;26.60;17.63;;;11.90;99.90;;;;;;4967452;28;20082;-74
2023/03/10 09:05:55;;;;;;;27.67;17.45;;;11.80;99.90;;;;;;4972297;28;20114;-75
2023/03/10 09:08:21;;;;;;;26.83;19.00;;;11.70;99.90;;;;;;4971345;28;20054;-75
2023/03/10 09:10:47;;;;;;;24.90;17.15;;;11.80;99.90;;;;;;4974671;28;20564;-75
2023/03/10 09:13:13;;;;;;;27.73;17.85;;;12.00;99.90;;;;;;4973142;28;20038;-75
2023/03/10 09:15:40;;;;;;;27.85;18.20;;;12.30;99.90;;;;;;4970782;28;20068;-75
2023/03/10 09:18:14;;;;;;;26.90;16.83;;;12.50;99.90;;;;;;4975868;28;21902;-75
2023/03/10 09:20:41;;;;;;;30.08;16.50;;;12.50;99.90;;;;;;4961731;28;20038;-75
2023/03/10 09:23:08;;;;;;;24.83;15.93;;;12.40;99.90;;;;;;4974484;28;20043;-75
2023/03/10 09:25:34;;;;;;;27.40;16.38;;;12.60;99.90;;;;;;4967931;28;20030;-75
2023/03/10 09:27:59;;;;;;;27.05;16.23;;;12.60;99.90;;;;;;4976481;28;20419;-75
2023/03/10 09:30:25;;;;;;;30.45;16.63;;;12.70;99.90;;;;;;4977280;28;20030;-75
2023/03/10 09:32:51;;;;;;;23.40;15.55;;;12.60;99.90;;;;;;4965657;28;20035;-75
2023/03/10 09:35:18;;;;;;;26.30;17.75;;;12.50;99.90;;;;;;4973646;28;20034;-75
2023/03/10 09:37:43;;;;;;;33.67;20.05;;;12.60;99.90;;;;;;4973238;28;20101;-75
2023/03/10 09:40:17;;;;;;;29.48;18.27;;;12.50;99.90;;;;;;4976607;28;20121;-75
2023/03/10 09:42:48;;;;;;;30.70;17.45;;;12.50;99.90;;;;;;4973500;28;20239;-75
2023/03/10 09:45:36;;;;;;;30.10;17.33;;;12.50;99.90;;;;;;4975865;28;20041;-75
2023/03/10 09:48:28;;;;;;;34.80;18.10;;;12.50;99.90;;;;;;4973447;28;20030;-75
2023/03/10 09:50:55;;;;;;;28.92;18.20;;;12.30;99.90;;;;;;4965421;28;20461;-76
2023/03/10 09:53:39;;;;;;;25.20;17.05;;;12.50;99.90;;;;;;4980726;28;20049;-75
2023/03/10 09:56:15;;;;;;;29.48;17.13;;;12.70;99.90;;;;;;4972684;28;20042;-75
2023/03/10 09:58:57;;;;;;;29.67;18.67;;;12.70;99.90;;;;;;4978745;28;20034;-75
2023/03/10 10:01:26;;;;;;;32.83;18.63;;;12.70;99.90;;;;;;4971862;28;20030;-75
2023/03/10 10:03:53;;;;;;;35.72;17.98;;;12.90;99.90;;;;;;4977433;28;20084;-75
2023/03/10 10:06:26;;;;;;;30.55;17.95;;;13.00;99.90;;;;;;4974819;28;20484;-75
2023/03/10 10:08:58;;;;;;;26.77;17.77;;;13.10;99.90;;;;;;4977608;28;20041;-75
2023/03/10 10:11:24;;;;;;;28.17;17.17;;;13.20;99.90;;;;;;4979536;28;20085;-75
2023/03/10 10:13:56;;;;;;;31.10;19.08;;;13.20;99.90;;;;;;4970927;28;20034;-75
2023/03/10 10:16:40;;;;;;;29.60;18.25;;;13.30;99.90;;;;;;4977812;28;20081;-75
2023/03/10 10:19:19;;;;;;;27.33;17.52;;;13.40;99.90;;;;;;4977930;28;20421;-75
2023/03/10 10:21:55;;;;;;;33.40;20.20;;;13.70;99.90;;;;;;4978287;28;20464;-75
2023/03/10 10:24:21;;;;;;;32.65;19.55;;;14.00;99.90;;;;;;4972642;28;20074;-75
2023/03/10 10:26:47;;;;;;;32.42;16.15;;;14.10;99.50;;;;;;4976344;28;20030;-75
2023/03/10 10:29:17;;;;;;;26.20;16.13;;;14.00;99.70;;;;;;4974430;28;20451;-75
2023/03/10 10:32:10;;;;;;;28.48;17.85;;;13.90;99.60;;;;;;4973023;28;20034;-75
2023/03/10 10:34:39;;;;;;;28.80;15.98;;;14.00;99.60;;;;;;4971230;28;20042;-75
2023/03/10 10:37:28;;;;;;;31.05;17.10;;;14.20;99.50;;;;;;4979423;28;20030;-75
2023/03/10 10:39:56;;;;;;;28.23;16.70;;;14.30;99.80;;;;;;4980705;28;20042;-75
2023/03/10 10:42:27;;;;;;;27.23;17.30;;;14.40;99.80;;;;;;4976954;28;20125;-75
2023/03/10 10:44:59;;;;;;;31.98;16.48;;;14.30;99.10;;;;;;4976711;28;20026;-75
2023/03/10 10:47:27;;;;;;;29.85;16.55;;;14.10;99.20;;;;;;4975507;28;20102;-76
2023/03/10 10:49:53;;;;;;;26.52;16.02;;;14.10;99.00;;;;;;4974921;28;20063;-75
2023/03/10 10:52:22;;;;;;;24.08;15.40;;;13.90;98.80;;;;;;4971227;28;20038;-76
2023/03/10 10:54:56;;;;;;;26.35;16.27;;;14.00;99.10;;;;;;4975450;28;20038;-76
2023/03/10 10:57:32;;;;;;;23.40;14.95;;;14.10;98.60;;;;;;4973369;28;20037;-76
2023/03/10 11:00:31;;;;;;;25.00;15.77;;;14.30;98.80;;;;;;4971843;28;21179;-76
2023/03/10 11:02:56;;;;;;;22.63;15.18;;;14.10;98.40;;;;;;4982970;28;20144;-76
2023/03/10 11:05:35;;;;;;;25.25;14.85;;;14.00;98.90;;;;;;4977559;28;20666;-75
2023/03/10 11:08:31;;;;;;;26.33;14.43;;;14.10;98.80;;;;;;4979511;28;20113;-75
2023/03/10 11:11:20;;;;;;;22.65;14.80;;;14.40;98.90;;;;;;4966919;28;20100;-76
2023/03/10 11:14:18;;;;;;;21.85;14.95;;;14.60;98.00;;;;;;4975373;28;20065;-75
2023/03/10 11:17:00;;;;;;;23.88;14.80;;;14.70;98.60;;;;;;4977058;28;20037;-76
2023/03/10 11:19:36;;;;;;;21.00;13.55;;;14.80;98.10;;;;;;4973932;28;20043;-76
2023/03/10 11:22:37;;;;;;;23.15;14.18;;;14.80;97.80;;;;;;4966042;28;20039;-76
2023/03/10 11:25:29;;;;;;;22.70;14.55;;;15.00;97.80;;;;;;4965329;28;20497;-76
2023/03/10 11:28:17;;;;;;;24.58;13.48;;;15.30;97.70;;;;;;4972905;28;20035;-76
2023/03/10 11:31:12;;;;;;;25.90;12.90;;;15.60;97.40;;;;;;4968523;28;20425;-76
2023/03/10 11:33:41;;;;;;;19.45;12.43;;;15.30;97.10;;;;;;4968239;28;20042;-76
2023/03/10 11:36:32;;;;;;;22.00;13.40;;;15.40;97.40;;;;;;4976616;28;20097;-75
2023/03/10 11:39:25;;;;;;;24.30;11.98;;;15.60;97.90;;;;;;4981014;28;20033;-76
2023/03/10 11:41:59;;;;;;;16.80;10.45;;;15.40;97.00;;;;;;4972202;28;20077;-75
2023/03/10 11:44:33;;;;;;;;;;;15.20;97.60;;;;;;4979143;28;20062;-75
2023/03/10 11:47:04;;;;;;;15.80;8.93;;;15.30;97.10;;;;;;4972906;28;20324;-75
2023/03/10 11:49:39;;;;;;;15.23;9.20;;;15.30;96.90;;;;;;4967276;28;20038;-75
2023/03/10 11:52:12;;;;;;;18.17;9.55;;;15.20;96.70;;;;;;4970314;28;20176;-76
2023/03/10 11:55:05;;;;;;;17.67;9.95;;;15.20;97.20;;;;;;4974428;28;20485;-76
2023/03/10 11:57:35;;;;;;;17.52;9.60;;;15.10;97.10;;;;;;4971603;28;20102;-76
2023/03/10 12:00:08;;;;;;;16.67;9.60;;;15.40;97.40;;;;;;4969888;28;20054;-75
2023/03/10 12:03:12;;;;;;;21.77;10.23;;;15.30;97.50;;;;;;4965552;28;20046;-75
2023/03/10 12:05:49;;;;;;;24.05;11.10;;;15.20;97.30;;;;;;4962691;28;20027;-75
2023/03/10 12:08:18;;;;;;;14.95;9.65;;;15.10;97.50;;;;;;4962844;28;20094;-76
2023/03/10 12:10:44;;;;;;;18.63;9.93;;;15.20;97.40;;;;;;4974518;28;20061;-77
2023/03/10 12:13:39;;;;;;;19.17;9.68;;;15.60;97.60;;;;;;4966120;28;20066;-76
2023/03/10 12:16:05;;;;;;;;;;;16.10;96.70;;;;;;4973119;28;20043;-77
2023/03/10 12:18:32;;;;;;;17.17;9.18;;;16.20;96.60;;;;;;4969821;28;19925;-76
2023/03/10 12:21:26;;;;;;;14.70;8.63;;;16.40;96.20;;;;;;4970685;28;20088;-74
2023/03/10 12:23:54;;;;;;;17.55;9.38;;;16.20;95.90;;;;;;4961926;28;20106;-74
2023/03/10 12:26:38;;;;;;;22.98;9.45;;;16.70;96.30;;;;;;4981773;28;20077;-74
2023/03/10 12:29:19;;;;;;;17.73;8.70;;;17.10;95.30;;;;;;4967882;28;20069;-74
2023/03/10 12:31:53;;;;;;;17.23;8.02;;;17.10;95.40;;;;;;4971096;28;20049;-74
2023/03/10 12:34:26;;;;;;;13.10;7.32;;;17.10;95.70;;;;;;4962140;28;20031;-74
2023/03/10 12:37:08;;;;;;;15.45;7.53;;;17.40;95.80;;;;;;4975603;28;20038;-74
2023/03/10 12:39:37;;;;;;;17.75;7.75;;;17.20;94.70;;;;;;4976873;28;20430;-75
2023/03/10 12:42:22;;;;;;;14.30;6.63;;;17.30;95.10;;;;;;4970265;28;20045;-74